Time;durP1;ratioP1;P1;durP2;ratioP2;P2;SDS_P1;SDS_P2;PMS_P1;PMS_P2;Temp;Humidity;BMP_temperature;BMP_pressure;BME280_temperature;BME280_humidity;BME280_pressure;Samples;Min_cycle;Max_cycle;Signal;HPM_P1;HPM_P2
2023/09/10 00:00:18;;;;;;;10.75;9.85;;;25.70;51.20;;;;;;20268;6900;293378;-76
2023/09/10 00:02:44;;;;;;;10.70;9.90;;;25.80;50.90;;;;;;20263;6900;308854;-76
2023/09/10 00:05:10;;;;;;;10.52;9.73;;;25.90;51.60;;;;;;20309;6885;284290;-76
2023/09/10 00:07:35;;;;;;;10.10;9.13;;;25.90;50.80;;;;;;20468;6898;119737;-76
2023/09/10 00:10:01;;;;;;;10.00;9.07;;;25.50;51.20;;;;;;20505;6885;118563;-76
2023/09/10 00:12:27;;;;;;;10.53;9.50;;;24.70;52.60;;;;;;20499;6885;118964;-76
2023/09/10 00:14:53;;;;;;;11.20;10.30;;;24.70;52.60;;;;;;20270;6895;310211;-76
2023/09/10 00:17:18;;;;;;;10.17;9.47;;;24.80;52.90;;;;;;20271;6895;317195;-75
2023/09/10 00:19:44;;;;;;;10.30;9.37;;;25.10;52.80;;;;;;20484;6895;117651;-76
2023/09/10 00:22:09;;;;;;;10.43;9.60;;;25.00;52.80;;;;;;20253;6895;343820;-76
2023/09/10 00:24:35;;;;;;;9.30;8.40;;;25.00;52.60;;;;;;20490;6895;119329;-76
2023/09/10 00:27:00;;;;;;;10.73;9.83;;;24.90;52.80;;;;;;20270;6895;279946;-76
2023/09/10 00:29:26;;;;;;;9.87;8.97;;;24.90;52.80;;;;;;20481;6895;118185;-76
2023/09/10 00:31:52;;;;;;;8.90;8.30;;;24.50;53.80;;;;;;20500;6885;118788;-76
2023/09/10 00:34:18;;;;;;;10.10;9.30;;;24.50;53.10;;;;;;20308;6885;279526;-76
2023/09/10 00:36:43;;;;;;;9.93;8.93;;;24.70;53.20;;;;;;20470;6900;118050;-75
2023/09/10 00:39:09;;;;;;;10.43;9.73;;;24.60;53.10;;;;;;20476;6900;119006;-75
2023/09/10 00:41:38;;;;;;;11.40;10.30;;;24.60;54.00;;;;;;20263;6900;279916;-78
2023/09/10 00:44:04;;;;;;;11.15;10.07;;;24.60;53.30;;;;;;20250;6900;279771;-75
2023/09/10 00:46:29;;;;;;;11.40;10.43;;;25.00;53.00;;;;;;20252;6900;309323;-75
2023/09/10 00:48:55;;;;;;;11.47;10.43;;;25.20;52.40;;;;;;20267;6900;281699;-75
2023/09/10 00:51:20;;;;;;;11.70;10.43;;;25.40;52.10;;;;;;20270;6900;279931;-75
2023/09/10 00:53:46;;;;;;;11.53;10.33;;;25.60;51.70;;;;;;20255;6900;309323;-76
2023/09/10 00:56:12;;;;;;;11.33;10.37;;;25.60;51.60;;;;;;20235;6900;309181;-76
2023/09/10 00:58:37;;;;;;;10.90;10.10;;;25.60;51.60;;;;;;20251;6900;333947;-76
2023/09/10 01:01:03;;;;;;;10.87;9.77;;;25.60;51.60;;;;;;20466;6900;119306;-76
2023/09/10 01:03:28;;;;;;;11.17;10.13;;;25.30;52.00;;;;;;20253;6900;309595;-76
2023/09/10 01:05:54;;;;;;;11.10;9.93;;;25.20;52.40;;;;;;20436;6900;121237;-76
2023/09/10 01:08:20;;;;;;;12.63;11.50;;;24.90;52.80;;;;;;20265;6900;299355;-77
2023/09/10 01:10:52;;;;;;;12.87;11.67;;;24.80;53.30;;;;;;20250;6900;304929;-79
2023/09/10 01:13:27;;;;;;;12.73;11.48;;;25.00;53.20;;;;;;20258;6900;311312;-78
2023/09/10 01:15:59;;;;;;;11.67;10.37;;;25.10;52.90;;;;;;20433;6900;120137;-76
2023/09/10 01:18:44;;;;;;;10.90;9.90;;;24.80;53.10;;;;;;20467;6898;119170;-76
2023/09/10 01:21:13;;;;;;;10.07;9.37;;;24.40;53.70;;;;;;20512;6885;117560;-76
2023/09/10 01:23:48;;;;;;;12.53;11.17;;;24.10;54.30;;;;;;20312;6885;288183;-76
2023/09/10 01:26:14;;;;;;;11.13;10.20;;;24.20;54.60;;;;;;20424;6895;122240;-76
2023/09/10 01:28:39;;;;;;;11.30;10.30;;;24.10;54.50;;;;;;20272;6895;308974;-76
2023/09/10 01:31:05;;;;;;;12.18;11.10;;;24.20;54.70;;;;;;20281;6895;310062;-76
2023/09/10 01:33:36;;;;;;;11.07;10.10;;;24.50;54.00;;;;;;20254;6900;309362;-76
2023/09/10 01:36:00;;;;;;;11.55;10.50;;;24.90;53.50;;;;;;20219;6900;308441;-77
2023/09/10 01:38:25;;;;;;;10.53;9.63;;;24.90;53.20;;;;;;20443;6900;119415;-76
2023/09/10 01:40:54;;;;;;;9.87;9.17;;;24.20;54.00;;;;;;20434;6900;118889;-77
2023/09/10 01:43:20;;;;;;;10.07;9.27;;;24.20;54.00;;;;;;20419;6900;117821;-76
2023/09/10 01:45:46;;;;;;;11.50;10.57;;;23.90;54.50;;;;;;20243;6900;316676;-76
2023/09/10 01:48:12;;;;;;;11.30;10.20;;;24.30;54.40;;;;;;20210;6900;340334;-76
2023/09/10 01:50:37;;;;;;;10.87;9.83;;;24.30;54.40;;;;;;20456;6900;118344;-76
2023/09/10 01:53:03;;;;;;;11.23;10.13;;;24.20;54.40;;;;;;20458;6900;118347;-76
2023/09/10 01:55:29;;;;;;;11.13;10.23;;;23.80;54.70;;;;;;20457;6900;121967;-75
2023/09/10 01:57:58;;;;;;;10.33;9.53;;;23.50;55.00;;;;;;20440;6900;147358;-76
2023/09/10 02:00:24;;;;;;;11.33;10.43;;;23.40;55.50;;;;;;20476;6900;118615;-76
2023/09/10 02:02:50;;;;;;;10.73;9.63;;;23.20;55.70;;;;;;20468;6900;118139;-76
2023/09/10 02:05:15;;;;;;;11.33;10.43;;;23.10;55.90;;;;;;20485;6900;117556;-76
2023/09/10 02:07:41;;;;;;;11.13;10.07;;;23.00;56.00;;;;;;20466;6900;119260;-76
2023/09/10 02:10:07;;;;;;;11.60;10.80;;;22.90;56.10;;;;;;20241;6900;280122;-76
2023/09/10 02:12:35;;;;;;;11.70;10.60;;;23.30;56.20;;;;;;20257;6900;288492;-76
2023/09/10 02:15:03;;;;;;;12.27;11.25;;;23.70;55.30;;;;;;20254;6900;319411;-76
2023/09/10 02:17:27;;;;;;;11.90;10.90;;;24.10;54.70;;;;;;20248;6900;326341;-76
2023/09/10 02:19:52;;;;;;;10.70;9.90;;;24.30;54.20;;;;;;20450;6900;147397;-77
2023/09/10 02:22:19;;;;;;;11.77;10.67;;;24.10;54.50;;;;;;20261;6900;310053;-77
2023/09/10 02:24:50;;;;;;;12.18;11.20;;;24.10;54.40;;;;;;20258;6900;280320;-76
2023/09/10 02:27:10;;;;;;;11.13;10.07;;;24.20;54.00;;;;;;20431;6900;119160;-76
2023/09/10 02:29:35;;;;;;;12.20;11.17;;;24.00;54.20;;;;;;20259;6899;317676;-76
2023/09/10 02:32:01;;;;;;;12.60;10.67;;;24.00;54.20;;;;;;20443;6899;119059;-77
2023/09/10 02:34:26;;;;;;;12.07;9.67;;;23.80;54.40;;;;;;20466;6900;118019;-76
2023/09/10 02:36:52;;;;;;;12.10;11.17;;;23.50;54.90;;;;;;20286;6900;308865;-76
2023/09/10 02:39:18;;;;;;;12.07;11.10;;;23.60;55.10;;;;;;20259;6900;316135;-77
2023/09/10 02:41:44;;;;;;;11.23;10.27;;;23.90;54.90;;;;;;20457;6900;118250;-76
2023/09/10 02:44:09;;;;;;;11.30;10.27;;;23.70;54.90;;;;;;20434;6900;119313;-76
2023/09/10 02:46:34;;;;;;;12.60;11.30;;;23.40;55.30;;;;;;20249;6900;309843;-76
2023/09/10 02:49:00;;;;;;;12.40;11.30;;;23.50;55.50;;;;;;20248;6900;317610;-76
2023/09/10 02:51:27;;;;;;;11.83;10.90;;;23.70;55.10;;;;;;20261;6900;308436;-76
2023/09/10 02:53:52;;;;;;;10.73;10.03;;;23.90;54.60;;;;;;20431;6900;118552;-77
2023/09/10 02:56:18;;;;;;;11.47;10.50;;;23.70;54.90;;;;;;20247;6900;310067;-76
2023/09/10 02:58:44;;;;;;;12.35;11.43;;;23.60;54.90;;;;;;20261;6900;308709;-76
2023/09/10 03:01:09;;;;;;;12.00;11.00;;;23.80;54.80;;;;;;20257;6900;279925;-76
2023/09/10 03:03:35;;;;;;;12.87;11.57;;;23.90;54.50;;;;;;20259;6900;328178;-76
2023/09/10 03:06:00;;;;;;;11.50;10.47;;;23.90;54.50;;;;;;20457;6900;119103;-76
2023/09/10 03:08:26;;;;;;;12.60;11.60;;;23.70;54.90;;;;;;20263;6900;279970;-76
2023/09/10 03:10:51;;;;;;;11.10;10.30;;;23.60;55.10;;;;;;20465;6900;117948;-78
2023/09/10 03:13:17;;;;;;;11.80;10.70;;;23.40;55.30;;;;;;20440;6900;119016;-76
2023/09/10 03:15:46;;;;;;;11.23;10.07;;;23.10;55.80;;;;;;20469;6900;118301;-76
2023/09/10 03:18:11;;;;;;;12.87;11.87;;;22.80;56.30;;;;;;20232;6900;289052;-76
2023/09/10 03:20:37;;;;;;;13.10;12.00;;;22.90;56.60;;;;;;20247;6900;338436;-76
2023/09/10 03:23:04;;;;;;;11.97;10.87;;;23.20;56.10;;;;;;20459;6900;119345;-76
2023/09/10 03:25:28;;;;;;;11.80;10.90;;;23.20;56.10;;;;;;20458;6900;122375;-76
2023/09/10 03:27:55;;;;;;;13.37;12.10;;;22.90;56.40;;;;;;20246;6900;292653;-76
2023/09/10 03:30:22;;;;;;;12.97;11.17;;;23.00;56.50;;;;;;20461;6900;118410;-76
2023/09/10 03:32:48;;;;;;;11.40;10.50;;;22.70;56.70;;;;;;20470;6900;118412;-76
2023/09/10 03:35:14;;;;;;;13.20;12.18;;;22.90;56.80;;;;;;20253;6900;309224;-76
2023/09/10 03:37:40;;;;;;;13.48;12.18;;;22.90;56.80;;;;;;20244;6900;333910;-76
2023/09/10 03:40:06;;;;;;;12.37;11.37;;;23.20;56.40;;;;;;20449;6900;118282;-77
2023/09/10 03:42:33;;;;;;;13.03;11.90;;;23.10;57.00;;;;;;20215;6898;310448;-76
2023/09/10 03:44:58;;;;;;;12.23;11.27;;;23.40;56.10;;;;;;20258;6900;339314;-76
2023/09/10 03:47:27;;;;;;;11.30;10.20;;;23.40;55.90;;;;;;20465;6900;117889;-76
2023/09/10 03:49:49;;;;;;;10.67;9.70;;;23.40;56.10;;;;;;20463;6900;120721;-78
2023/09/10 03:52:15;;;;;;;12.23;11.23;;;23.10;56.50;;;;;;20299;6885;309531;-77
2023/09/10 03:54:40;;;;;;;11.63;10.53;;;23.20;56.20;;;;;;20477;6900;117842;-79
2023/09/10 03:57:06;;;;;;;11.83;10.93;;;23.20;56.20;;;;;;20276;6900;279713;-76
2023/09/10 03:59:31;;;;;;;12.67;11.70;;;23.30;55.90;;;;;;20253;6900;317978;-76
2023/09/10 04:01:59;;;;;;;12.33;11.13;;;23.60;55.40;;;;;;20442;6900;119603;-78
2023/09/10 04:04:22;;;;;;;11.27;10.33;;;23.50;55.50;;;;;;20470;6900;118376;-77
2023/09/10 04:06:48;;;;;;;12.23;11.07;;;23.20;55.90;;;;;;20245;6900;287782;-76
2023/09/10 04:09:14;;;;;;;11.77;10.67;;;23.30;55.90;;;;;;20466;6900;119608;-76
2023/09/10 04:11:39;;;;;;;12.93;11.70;;;23.10;55.90;;;;;;20241;6900;309636;-76
2023/09/10 04:14:05;;;;;;;10.47;9.63;;;23.20;55.80;;;;;;20449;6900;122527;-76
2023/09/10 04:16:30;;;;;;;10.10;9.37;;;23.10;55.90;;;;;;20461;6900;118771;-76
2023/09/10 04:18:57;;;;;;;10.27;9.43;;;22.50;56.60;;;;;;20509;6885;118613;-76
2023/09/10 04:21:22;;;;;;;11.90;11.02;;;22.50;56.60;;;;;;20295;6885;338203;-76
2023/09/10 04:23:48;;;;;;;12.33;11.33;;;22.70;56.70;;;;;;20239;6900;306790;-76
2023/09/10 04:26:13;;;;;;;13.27;12.17;;;23.00;56.20;;;;;;20222;6900;338828;-76
2023/09/10 04:28:39;;;;;;;12.53;11.60;;;23.20;55.70;;;;;;20251;6900;308994;-76
2023/09/10 04:31:08;;;;;;;11.17;10.33;;;23.00;55.50;;;;;;20464;6900;121268;-76
2023/09/10 04:33:32;;;;;;;12.43;11.30;;;23.00;55.70;;;;;;20231;6900;302019;-76
2023/09/10 04:35:57;;;;;;;11.87;10.50;;;23.00;55.70;;;;;;20424;6900;121957;-76
2023/09/10 04:38:23;;;;;;;12.60;11.40;;;22.80;56.00;;;;;;20223;6900;346824;-76
2023/09/10 04:43:52;;;;;;;11.13;10.17;;;22.60;56.10;;;;;;20401;6900;117123;-84
2023/09/10 04:46:19;;;;;;;13.00;11.70;;;22.30;56.70;;;;;;20264;6900;325977;-82
2023/09/10 04:48:46;;;;;;;12.73;11.63;;;22.40;57.00;;;;;;20233;6900;317553;-79
2023/09/10 04:51:10;;;;;;;12.67;11.67;;;22.60;56.50;;;;;;20266;6900;281074;-80
2023/09/10 04:53:36;;;;;;;12.50;11.37;;;22.90;56.10;;;;;;20253;6898;317969;-77
2023/09/10 04:56:02;;;;;;;11.73;10.80;;;23.00;55.70;;;;;;20239;6899;280479;-75
2023/09/10 04:58:27;;;;;;;12.40;11.45;;;23.10;55.40;;;;;;20292;6900;282055;-78
2023/09/10 05:00:54;;;;;;;10.77;10.00;;;23.20;55.20;;;;;;20478;6900;118279;-81
2023/09/10 05:03:21;;;;;;;12.73;11.60;;;23.00;55.60;;;;;;20260;6900;308749;-81
2023/09/10 05:05:48;;;;;;;11.37;10.47;;;22.90;55.70;;;;;;20434;6900;117984;-79
2023/09/10 05:08:14;;;;;;;11.10;10.33;;;22.80;56.00;;;;;;20421;6900;122224;-78
2023/09/10 05:10:39;;;;;;;11.02;10.23;;;22.50;56.50;;;;;;20451;6900;121656;-78
2023/09/10 05:13:05;;;;;;;11.40;10.40;;;22.20;56.90;;;;;;20441;6900;119376;-77
2023/09/10 05:15:30;;;;;;;12.90;11.77;;;22.00;57.20;;;;;;20256;6900;317443;-78
2023/09/10 05:17:56;;;;;;;11.23;10.33;;;22.20;57.30;;;;;;20457;6900;123032;-80
2023/09/10 05:20:22;;;;;;;13.53;12.43;;;22.20;57.20;;;;;;20245;6900;309857;-75
2023/09/10 05:22:47;;;;;;;12.30;11.20;;;22.40;56.90;;;;;;20463;6900;117676;-75
2023/09/10 05:25:13;;;;;;;12.97;12.00;;;22.40;57.00;;;;;;20256;6900;310078;-77
2023/09/10 05:27:38;;;;;;;12.07;11.13;;;22.50;56.90;;;;;;20325;6900;117916;-77
2023/09/10 05:30:04;;;;;;;12.90;11.90;;;22.50;57.00;;;;;;20143;6900;309172;-78
2023/09/10 05:32:30;;;;;;;13.48;12.18;;;22.60;57.00;;;;;;20239;6900;344930;-78
2023/09/10 05:34:57;;;;;;;13.10;12.10;;;22.90;57.10;;;;;;20229;6900;309337;-77
2023/09/10 05:37:23;;;;;;;11.93;10.93;;;23.10;55.80;;;;;;20437;6900;121069;-82
2023/09/10 05:39:48;;;;;;;10.80;10.00;;;23.00;56.10;;;;;;20426;6900;118177;-74
2023/09/10 05:42:14;;;;;;;11.20;10.10;;;22.50;57.00;;;;;;20389;6900;121931;-75
2023/09/10 05:44:41;;;;;;;12.07;11.07;;;22.60;57.00;;;;;;20176;6900;309383;-74
2023/09/10 05:47:08;;;;;;;11.67;10.60;;;22.60;57.00;;;;;;20400;6900;119015;-75
2023/09/10 05:49:37;;;;;;;11.90;11.00;;;22.70;57.10;;;;;;20186;6900;286943;-75
2023/09/10 05:52:00;;;;;;;12.40;11.57;;;22.80;56.60;;;;;;20172;6900;317702;-75
2023/09/10 05:54:26;;;;;;;13.02;11.82;;;23.10;56.00;;;;;;20203;6900;318664;-76
2023/09/10 05:56:53;;;;;;;12.47;11.63;;;23.40;55.50;;;;;;20190;6900;308750;-78
2023/09/10 05:59:19;;;;;;;11.87;10.77;;;23.50;55.10;;;;;;20373;6900;117689;-77
2023/09/10 06:01:45;;;;;;;12.73;11.57;;;23.40;55.50;;;;;;20210;6900;287246;-77
2023/09/10 06:04:11;;;;;;;13.00;11.90;;;23.40;55.40;;;;;;20177;6898;289147;-77
2023/09/10 06:06:36;;;;;;;12.65;11.80;;;23.50;55.10;;;;;;20198;6900;321834;-76
2023/09/10 06:09:04;;;;;;;11.10;10.30;;;23.70;54.90;;;;;;20428;6900;117739;-76
2023/09/10 06:11:29;;;;;;;10.87;9.90;;;23.50;55.20;;;;;;20424;6900;118382;-77
2023/09/10 06:13:54;;;;;;;11.90;10.80;;;23.30;56.10;;;;;;20220;6900;309683;-77
2023/09/10 06:16:21;;;;;;;10.73;9.93;;;23.50;56.00;;;;;;20372;6900;118487;-78
2023/09/10 06:18:47;;;;;;;11.93;10.83;;;23.60;56.10;;;;;;20183;6900;279647;-76
2023/09/10 06:21:13;;;;;;;11.30;10.40;;;23.90;55.40;;;;;;20188;6900;321848;-77
2023/09/10 06:23:38;;;;;;;10.60;9.80;;;24.20;54.90;;;;;;20409;6900;119566;-76
2023/09/10 06:26:05;;;;;;;11.20;10.27;;;24.30;54.90;;;;;;20222;6885;317263;-76
2023/09/10 06:28:30;;;;;;;11.93;10.80;;;24.50;54.40;;;;;;20256;6885;335376;-76
2023/09/10 06:30:57;;;;;;;10.37;9.43;;;24.70;53.30;;;;;;20443;6900;118090;-76
2023/09/10 06:33:22;;;;;;;9.97;8.80;;;24.70;53.70;;;;;;20261;6900;122294;-74
2023/09/10 06:35:48;;;;;;;10.10;9.13;;;24.50;54.10;;;;;;20332;6900;125150;-77
2023/09/10 06:38:15;;;;;;;11.40;10.43;;;24.20;54.40;;;;;;20160;6900;288064;-75
2023/09/10 06:40:40;;;;;;;11.93;10.77;;;24.30;54.30;;;;;;20120;6900;314183;-77
2023/09/10 06:43:08;;;;;;;9.93;8.93;;;24.60;54.00;;;;;;20403;6900;119415;-76
2023/09/10 06:45:31;;;;;;;10.50;9.80;;;24.60;54.20;;;;;;20194;6900;328016;-75
2023/09/10 06:47:57;;;;;;;9.83;8.93;;;24.70;54.20;;;;;;20401;6900;121899;-76
2023/09/10 06:50:23;;;;;;;10.50;9.60;;;24.80;54.30;;;;;;20210;6900;309678;-75
2023/09/10 06:52:48;;;;;;;9.82;8.85;;;25.00;54.10;;;;;;20478;6885;117546;-75
2023/09/10 06:55:14;;;;;;;9.30;8.63;;;25.00;54.20;;;;;;20453;6900;117402;-73
2023/09/10 06:57:40;;;;;;;10.20;9.33;;;24.90;53.90;;;;;;20464;6900;118545;-77
2023/09/10 07:00:07;;;;;;;9.13;8.43;;;24.90;54.30;;;;;;20457;6900;120195;-76
2023/09/10 07:02:33;;;;;;;9.27;8.67;;;24.90;54.50;;;;;;20464;6900;117876;-77
2023/09/10 07:04:58;;;;;;;10.10;9.37;;;25.00;54.40;;;;;;20247;6900;318694;-77
2023/09/10 07:07:24;;;;;;;11.20;9.88;;;25.30;53.10;;;;;;20244;6900;338382;-77
2023/09/10 07:09:50;;;;;;;10.70;9.83;;;25.80;51.80;;;;;;20236;6900;309139;-79
2023/09/10 07:12:15;;;;;;;11.03;10.23;;;26.30;51.00;;;;;;20097;6900;318747;-77
2023/09/10 07:14:42;;;;;;;10.97;10.00;;;26.70;50.10;;;;;;20442;6900;120039;-77
2023/09/10 07:17:08;;;;;;;10.70;9.83;;;26.70;50.30;;;;;;20221;6898;279563;-75
2023/09/10 07:19:33;;;;;;;10.77;9.97;;;26.80;49.50;;;;;;20235;6900;317072;-76
2023/09/10 07:21:59;;;;;;;11.90;10.80;;;27.20;49.30;;;;;;20231;6900;338838;-75
2023/09/10 07:24:24;;;;;;;11.23;10.33;;;27.40;48.20;;;;;;20246;6900;303696;-76
2023/09/10 07:26:51;;;;;;;11.07;10.03;;;27.90;47.80;;;;;;20236;6900;308875;-75
2023/09/10 07:29:16;;;;;;;10.60;9.30;;;27.80;47.70;;;;;;20437;6900;118428;-75
2023/09/10 07:31:42;;;;;;;11.10;10.23;;;27.80;48.20;;;;;;20276;6885;309797;-76
2023/09/10 07:34:08;;;;;;;10.30;9.40;;;27.90;47.70;;;;;;20460;6885;122459;-76
2023/09/10 07:36:33;;;;;;;9.40;8.60;;;27.80;48.10;;;;;;20440;6900;117596;-76
2023/09/10 07:38:59;;;;;;;10.00;9.03;;;27.60;48.60;;;;;;20488;6885;117839;-75
2023/09/10 07:41:24;;;;;;;11.53;8.90;;;27.50;48.90;;;;;;20489;6885;118990;-75
2023/09/10 07:43:51;;;;;;;10.40;8.80;;;27.40;49.10;;;;;;20431;6900;117743;-79
2023/09/10 07:46:17;;;;;;;9.97;9.00;;;27.40;49.30;;;;;;20444;6900;118988;-75
2023/09/10 07:48:42;;;;;;;9.77;9.03;;;27.40;49.40;;;;;;20494;6885;117530;-76
2023/09/10 07:51:10;;;;;;;9.33;8.53;;;27.50;49.30;;;;;;20475;6885;117669;-74
2023/09/10 07:53:53;;;;;;;10.60;9.80;;;27.60;49.20;;;;;;20227;6900;311644;-76
2023/09/10 07:56:24;;;;;;;9.90;9.10;;;27.90;48.20;;;;;;20266;6900;304713;-81
2023/09/10 07:59:01;;;;;;;9.27;8.43;;;28.50;47.30;;;;;;20279;6900;118206;-81
2023/09/10 08:01:31;;;;;;;9.03;8.33;;;28.60;47.30;;;;;;20433;6900;118573;-80
2023/09/10 08:03:58;;;;;;;10.20;9.33;;;28.60;47.30;;;;;;20207;6900;288563;-77
2023/09/10 08:06:28;;;;;;;10.17;9.10;;;28.80;46.30;;;;;;20214;6900;285065;-82
2023/09/10 08:08:57;;;;;;;9.37;8.57;;;29.20;45.20;;;;;;20387;6900;121590;-81
2023/09/10 08:11:23;;;;;;;10.73;8.37;;;29.20;46.20;;;;;;20207;6900;120786;-78
2023/09/10 08:13:50;;;;;;;9.93;9.00;;;29.20;45.60;;;;;;20215;6874;326836;-78
2023/09/10 08:16:17;;;;;;;8.93;8.17;;;29.40;45.00;;;;;;20525;6874;117501;-77
2023/09/10 08:18:45;;;;;;;9.60;8.75;;;29.50;45.30;;;;;;20346;6874;308106;-77
2023/09/10 08:21:10;;;;;;;9.40;8.57;;;29.70;44.20;;;;;;20249;6896;310158;-77
2023/09/10 08:23:35;;;;;;;9.83;9.13;;;30.10;43.90;;;;;;20270;6885;317755;-81
2023/09/10 08:26:01;;;;;;;9.20;8.50;;;30.40;42.80;;;;;;20251;6885;279978;-76
2023/09/10 08:28:26;;;;;;;9.73;8.83;;;30.70;42.70;;;;;;20245;6893;319422;-75
2023/09/10 08:30:53;;;;;;;9.10;8.30;;;30.90;41.40;;;;;;20253;6895;283856;-77
2023/09/10 08:33:17;;;;;;;8.93;8.30;;;31.10;41.90;;;;;;20241;6895;309797;-73
2023/09/10 08:35:44;;;;;;;8.30;7.80;;;31.30;41.10;;;;;;20448;6895;118126;-77
2023/09/10 08:38:11;;;;;;;8.55;7.80;;;31.20;41.60;;;;;;20418;6895;117667;-78
2023/09/10 08:40:38;;;;;;;8.83;8.07;;;30.90;42.20;;;;;;20484;6885;119916;-77
2023/09/10 08:43:04;;;;;;;8.57;7.77;;;30.70;42.90;;;;;;20442;6885;121520;-76
2023/09/10 08:45:30;;;;;;;9.02;8.40;;;30.70;42.90;;;;;;20245;6885;342845;-78
2023/09/10 08:47:55;;;;;;;10.17;7.87;;;30.90;42.10;;;;;;20220;6900;325592;-80
2023/09/10 08:50:21;;;;;;;8.70;8.10;;;31.30;42.60;;;;;;20436;6900;117929;-83
2023/09/10 08:52:48;;;;;;;8.77;6.83;;;31.40;42.10;;;;;;20464;6900;117856;-79
2023/09/10 08:55:13;;;;;;;8.73;7.80;;;31.20;42.20;;;;;;20230;6900;319854;-80
2023/09/10 08:57:38;;;;;;;8.03;7.23;;;31.40;41.50;;;;;;20449;6900;118475;-80
2023/09/10 09:00:10;;;;;;;10.20;7.60;;;31.50;41.50;;;;;;20217;6900;308819;-79
2023/09/10 09:02:32;;;;;;;8.27;7.53;;;31.70;41.50;;;;;;20223;6900;289268;-78
2023/09/10 09:04:58;;;;;;;8.65;7.80;;;32.00;41.20;;;;;;20291;6885;322233;-81
2023/09/10 09:07:24;;;;;;;9.13;7.53;;;32.30;40.40;;;;;;20502;6885;117494;-77
2023/09/10 09:09:51;;;;;;;8.40;7.33;;;32.30;40.80;;;;;;20434;6900;119982;-82
2023/09/10 09:12:16;;;;;;;8.10;7.30;;;32.10;41.10;;;;;;20378;6900;117856;-81
2023/09/10 09:14:44;;;;;;;8.88;8.25;;;32.00;41.20;;;;;;20203;6900;284174;-82
2023/09/10 09:17:10;;;;;;;9.20;7.72;;;32.20;39.70;;;;;;20231;6900;348981;-81
2023/09/10 09:19:36;;;;;;;8.13;7.33;;;32.50;40.10;;;;;;20423;6900;117400;-81
2023/09/10 09:22:02;;;;;;;9.03;7.70;;;32.50;40.00;;;;;;20435;6900;120952;-81
2023/09/10 09:24:27;;;;;;;8.32;7.62;;;32.40;41.10;;;;;;20238;6900;314566;-80
2023/09/10 09:26:53;;;;;;;7.97;7.23;;;32.60;40.30;;;;;;20263;6900;314073;-81
2023/09/10 09:29:18;;;;;;;8.53;7.37;;;32.90;39.50;;;;;;20476;6900;123666;-80
2023/09/10 09:31:44;;;;;;;8.07;7.57;;;33.00;39.40;;;;;;20478;6900;121664;-81
2023/09/10 09:34:12;;;;;;;8.10;7.50;;;32.70;39.80;;;;;;20258;6900;308850;-80
2023/09/10 09:36:39;;;;;;;8.10;7.50;;;32.80;39.20;;;;;;20276;6900;279095;-80
2023/09/10 09:39:07;;;;;;;7.43;6.87;;;33.20;38.40;;;;;;20474;6899;117363;-80
2023/09/10 09:41:29;;;;;;;7.80;7.20;;;33.20;39.10;;;;;;20465;6900;117624;-81
2023/09/10 09:43:54;;;;;;;8.47;7.40;;;33.10;39.60;;;;;;20248;6900;311562;-82
2023/09/10 09:46:21;;;;;;;7.87;7.10;;;33.20;39.60;;;;;;20441;6900;119355;-82
2023/09/10 09:48:45;;;;;;;8.13;7.47;;;33.30;39.40;;;;;;20250;6900;288043;-81
2023/09/10 09:51:11;;;;;;;8.17;7.40;;;33.50;38.30;;;;;;20251;6900;307639;-84
2023/09/10 09:53:36;;;;;;;10.20;7.10;;;33.80;38.50;;;;;;20232;6900;317304;-80
2023/09/10 09:56:03;;;;;;;7.50;6.90;;;34.10;37.60;;;;;;20238;6900;279633;-81
2023/09/10 09:58:29;;;;;;;7.57;7.07;;;34.30;37.00;;;;;;20237;6900;280446;-82
2023/09/10 10:00:58;;;;;;;8.65;7.22;;;34.50;36.90;;;;;;20242;6900;330577;-80
2023/09/10 10:03:26;;;;;;;11.67;7.47;;;34.50;37.40;;;;;;20453;6900;118142;-78
2023/09/10 10:05:52;;;;;;;7.57;6.97;;;34.50;36.70;;;;;;20214;6900;317495;-76
2023/09/10 10:08:17;;;;;;;7.70;7.10;;;34.40;36.60;;;;;;20461;6900;117580;-78
2023/09/10 10:10:47;;;;;;;7.50;6.80;;;34.00;37.30;;;;;;20453;6900;121951;-79
2023/09/10 10:13:12;;;;;;;7.83;7.23;;;34.00;37.30;;;;;;20228;6900;312944;-81
2023/09/10 10:15:37;;;;;;;7.50;7.00;;;34.10;37.40;;;;;;20449;6900;118292;-80
2023/09/10 10:18:03;;;;;;;8.70;7.90;;;34.10;37.20;;;;;;20441;6900;148700;-80
2023/09/10 10:20:29;;;;;;;7.85;7.25;;;33.90;37.20;;;;;;20472;6900;117648;-80
2023/09/10 10:22:54;;;;;;;8.27;7.12;;;33.70;37.50;;;;;;20253;6900;287101;-80
2023/09/10 10:25:20;;;;;;;8.33;7.73;;;33.80;38.00;;;;;;20259;6900;288602;-80
2023/09/10 10:27:46;;;;;;;7.30;6.60;;;34.10;37.00;;;;;;20460;6900;118545;-81
2023/09/10 10:30:11;;;;;;;7.83;7.17;;;34.10;37.30;;;;;;20231;6900;308950;-80
2023/09/10 10:32:38;;;;;;;7.40;6.87;;;34.20;37.40;;;;;;20473;6900;117859;-80
2023/09/10 10:35:05;;;;;;;7.93;7.27;;;34.20;37.50;;;;;;20248;6900;308918;-80
2023/09/10 10:37:32;;;;;;;8.43;7.70;;;34.30;36.80;;;;;;20467;6900;121392;-80
2023/09/10 10:40:11;;;;;;;8.10;7.60;;;34.20;36.80;;;;;;20205;6900;339288;-80
2023/09/10 10:42:37;;;;;;;9.17;7.30;;;34.30;36.70;;;;;;20496;6900;117386;-80
2023/09/10 10:45:02;;;;;;;8.47;7.57;;;34.20;37.00;;;;;;20466;6900;119263;-79
2023/09/10 10:47:28;;;;;;;8.57;7.97;;;34.00;37.20;;;;;;20455;6900;117871;-79
2023/09/10 10:49:53;;;;;;;8.50;7.80;;;33.80;37.50;;;;;;20224;6898;343448;-80
2023/09/10 10:52:22;;;;;;;8.90;8.10;;;33.90;37.70;;;;;;20268;6899;339592;-78
2023/09/10 10:54:47;;;;;;;7.80;7.10;;;34.20;37.50;;;;;;20472;6900;117368;-78
2023/09/10 10:57:13;;;;;;;7.37;6.90;;;34.20;37.40;;;;;;20474;6900;117685;-78
2023/09/10 10:59:38;;;;;;;8.00;7.30;;;34.00;37.60;;;;;;20495;6900;121497;-78
2023/09/10 11:02:21;;;;;;;7.80;7.20;;;33.80;37.80;;;;;;20485;6900;118340;-79
2023/09/10 11:04:56;;;;;;;8.10;7.50;;;33.70;37.70;;;;;;20262;6900;309229;-78
2023/09/10 11:07:22;;;;;;;7.30;6.70;;;33.80;36.30;;;;;;20481;6900;117199;-78
2023/09/10 11:09:48;;;;;;;8.80;8.10;;;33.80;36.60;;;;;;20276;6900;310183;-79
2023/09/10 11:12:15;;;;;;;8.30;7.40;;;34.00;37.00;;;;;;20269;6900;279254;-82
2023/09/10 11:15:00;;;;;;;8.67;7.83;;;34.30;37.10;;;;;;20469;6900;117593;-79
2023/09/10 11:17:31;;;;;;;8.10;7.27;;;34.20;36.90;;;;;;20473;6900;117372;-79
2023/09/10 11:19:55;;;;;;;8.53;7.73;;;33.70;37.50;;;;;;20451;6900;121480;-79
2023/09/10 11:22:22;;;;;;;8.00;7.32;;;33.80;37.50;;;;;;20257;6900;307048;-80
2023/09/10 11:25:01;;;;;;;8.00;7.30;;;33.80;37.50;;;;;;20268;6900;311047;-77
2023/09/10 11:27:30;;;;;;;8.02;7.22;;;34.10;36.60;;;;;;20254;6900;279540;-82
2023/09/10 11:30:08;;;;;;;7.97;7.27;;;34.40;36.80;;;;;;20289;6885;316620;-80
2023/09/10 11:32:34;;;;;;;8.10;7.50;;;34.50;36.00;;;;;;20282;6900;344323;-83
2023/09/10 11:35:19;;;;;;;7.37;6.70;;;34.60;37.10;;;;;;20566;6885;121749;-81
2023/09/10 11:37:44;;;;;;;7.50;6.80;;;34.50;36.10;;;;;;20315;6885;309049;-81
2023/09/10 11:40:12;;;;;;;7.17;6.67;;;34.50;36.70;;;;;;20450;6900;121258;-79
2023/09/10 11:42:37;;;;;;;7.27;6.77;;;34.40;36.50;;;;;;20471;6900;119260;-81
2023/09/10 11:45:01;;;;;;;8.60;7.80;;;34.20;36.30;;;;;;20260;6900;338721;-82
2023/09/10 11:47:27;;;;;;;8.03;7.27;;;34.30;35.70;;;;;;20274;6900;309314;-79
2023/09/10 11:50:03;;;;;;;9.27;8.43;;;34.50;36.30;;;;;;20451;6900;117509;-80
2023/09/10 11:52:28;;;;;;;7.27;6.63;;;34.50;36.00;;;;;;20473;6900;118069;-80
2023/09/10 11:54:54;;;;;;;6.87;6.30;;;34.30;35.60;;;;;;20488;6900;118077;-80
2023/09/10 11:57:20;;;;;;;7.27;6.50;;;34.20;35.50;;;;;;20249;6900;288101;-79
2023/09/10 11:59:49;;;;;;;7.30;6.70;;;34.40;35.00;;;;;;20224;6900;309562;-81
2023/09/10 12:02:14;;;;;;;6.80;6.20;;;34.60;35.00;;;;;;20452;6898;120310;-81
2023/09/10 12:04:40;;;;;;;6.60;6.10;;;34.50;34.80;;;;;;20268;6900;285797;-79
2023/09/10 12:07:06;;;;;;;7.10;6.60;;;34.50;34.10;;;;;;20266;6900;299875;-80
2023/09/10 12:09:32;;;;;;;8.53;6.20;;;34.50;34.40;;;;;;20480;6900;117349;-79
2023/09/10 12:12:02;;;;;;;7.30;6.60;;;34.50;34.40;;;;;;20246;6900;278980;-77
2023/09/10 12:14:27;;;;;;;6.70;5.93;;;34.50;34.50;;;;;;20460;6900;121732;-77
2023/09/10 12:16:53;;;;;;;7.27;6.57;;;34.50;34.80;;;;;;20255;6900;291795;-76
2023/09/10 12:19:19;;;;;;;7.03;6.43;;;34.50;34.20;;;;;;20473;6900;119106;-76
2023/09/10 12:21:44;;;;;;;6.80;6.30;;;34.50;34.50;;;;;;20460;6900;118370;-76
2023/09/10 12:24:10;;;;;;;6.90;6.40;;;34.30;34.80;;;;;;20243;6900;316545;-76